sensor_id;sensor_type;location;lat;lon;timestamp;P1;durP1;ratioP1;P2;durP2;ratioP2
24301;SDS011;12421;49.732;20.078;2024-02-26T00:04:29;39.00;;;20.40;;
24301;SDS011;12421;49.732;20.078;2024-02-26T00:14:32;32.10;;;18.40;;
24301;SDS011;12421;49.732;20.078;2024-02-26T00:24:36;35.90;;;19.20;;
24301;SDS011;12421;49.732;20.078;2024-02-26T00:34:39;27.80;;;16.00;;
24301;SDS011;12421;49.732;20.078;2024-02-26T00:44:42;37.40;;;18.50;;
24301;SDS011;12421;49.732;20.078;2024-02-26T00:54:46;30.70;;;18.30;;
24301;SDS011;12421;49.732;20.078;2024-02-26T01:04:49;29.10;;;16.20;;
24301;SDS011;12421;49.732;20.078;2024-02-26T01:14:52;28.20;;;15.90;;
24301;SDS011;12421;49.732;20.078;2024-02-26T01:24:55;25.10;;;14.20;;
24301;SDS011;12421;49.732;20.078;2024-02-26T01:34:59;24.30;;;14.80;;
24301;SDS011;12421;49.732;20.078;2024-02-26T01:45:03;18.50;;;11.40;;
24301;SDS011;12421;49.732;20.078;2024-02-26T01:55:07;21.40;;;13.20;;
24301;SDS011;12421;49.732;20.078;2024-02-26T02:05:11;27.00;;;14.70;;
24301;SDS011;12421;49.732;20.078;2024-02-26T02:15:15;26.10;;;15.40;;
24301;SDS011;12421;49.732;20.078;2024-02-26T02:25:18;26.20;;;14.60;;
24301;SDS011;12421;49.732;20.078;2024-02-26T02:35:21;23.70;;;13.50;;
24301;SDS011;12421;49.732;20.078;2024-02-26T02:45:24;21.70;;;13.00;;
24301;SDS011;12421;49.732;20.078;2024-02-26T02:55:28;24.90;;;13.30;;
24301;SDS011;12421;49.732;20.078;2024-02-26T03:05:31;18.30;;;11.20;;
24301;SDS011;12421;49.732;20.078;2024-02-26T03:15:34;19.50;;;13.40;;
24301;SDS011;12421;49.732;20.078;2024-02-26T03:25:38;19.00;;;12.90;;
24301;SDS011;12421;49.732;20.078;2024-02-26T03:35:41;22.20;;;12.50;;
24301;SDS011;12421;49.732;20.078;2024-02-26T03:45:44;19.40;;;11.90;;
24301;SDS011;12421;49.732;20.078;2024-02-26T03:55:48;19.90;;;11.60;;
24301;SDS011;12421;49.732;20.078;2024-02-26T04:05:52;17.90;;;11.80;;
24301;SDS011;12421;49.732;20.078;2024-02-26T04:15:55;20.90;;;12.40;;
24301;SDS011;12421;49.732;20.078;2024-02-26T04:25:59;22.80;;;12.20;;
24301;SDS011;12421;49.732;20.078;2024-02-26T04:36:02;20.90;;;11.90;;
24301;SDS011;12421;49.732;20.078;2024-02-26T04:46:07;16.80;;;12.00;;
24301;SDS011;12421;49.732;20.078;2024-02-26T04:56:11;21.60;;;11.10;;
24301;SDS011;12421;49.732;20.078;2024-02-26T05:06:15;19.60;;;12.90;;
24301;SDS011;12421;49.732;20.078;2024-02-26T05:16:19;21.70;;;14.00;;
24301;SDS011;12421;49.732;20.078;2024-02-26T05:26:24;24.70;;;13.20;;
24301;SDS011;12421;49.732;20.078;2024-02-26T05:36:27;23.70;;;12.10;;
24301;SDS011;12421;49.732;20.078;2024-02-26T05:46:36;20.60;;;14.30;;
24301;SDS011;12421;49.732;20.078;2024-02-26T05:56:39;17.20;;;12.80;;
24301;SDS011;12421;49.732;20.078;2024-02-26T06:06:44;24.70;;;14.70;;
24301;SDS011;12421;49.732;20.078;2024-02-26T06:16:48;21.30;;;12.70;;
24301;SDS011;12421;49.732;20.078;2024-02-26T06:26:52;21.40;;;12.90;;
24301;SDS011;12421;49.732;20.078;2024-02-26T06:36:55;18.80;;;12.10;;
24301;SDS011;12421;49.732;20.078;2024-02-26T06:46:59;26.50;;;13.20;;
24301;SDS011;12421;49.732;20.078;2024-02-26T06:57:03;24.80;;;15.10;;
24301;SDS011;12421;49.732;20.078;2024-02-26T07:07:07;32.80;;;19.10;;
24301;SDS011;12421;49.732;20.078;2024-02-26T07:17:11;21.20;;;13.80;;
24301;SDS011;12421;49.732;20.078;2024-02-26T07:27:14;31.60;;;18.40;;
24301;SDS011;12421;49.732;20.078;2024-02-26T07:37:20;29.80;;;19.80;;
24301;SDS011;12421;49.732;20.078;2024-02-26T07:47:23;18.50;;;12.70;;
24301;SDS011;12421;49.732;20.078;2024-02-26T07:57:27;22.50;;;15.00;;
24301;SDS011;12421;49.732;20.078;2024-02-26T08:07:30;18.90;;;12.60;;
24301;SDS011;12421;49.732;20.078;2024-02-26T08:17:34;15.70;;;10.30;;
24301;SDS011;12421;49.732;20.078;2024-02-26T08:27:37;6.20;;;3.80;;
24301;SDS011;12421;49.732;20.078;2024-02-26T08:37:43;7.60;;;4.10;;
24301;SDS011;12421;49.732;20.078;2024-02-26T08:47:47;7.60;;;5.10;;
24301;SDS011;12421;49.732;20.078;2024-02-26T08:57:51;7.50;;;4.90;;
24301;SDS011;12421;49.732;20.078;2024-02-26T09:07:57;5.00;;;3.10;;
24301;SDS011;12421;49.732;20.078;2024-02-26T09:18:00;5.70;;;3.20;;
24301;SDS011;12421;49.732;20.078;2024-02-26T09:28:05;8.30;;;4.30;;
24301;SDS011;12421;49.732;20.078;2024-02-26T09:38:09;5.60;;;3.50;;
24301;SDS011;12421;49.732;20.078;2024-02-26T09:48:12;6.30;;;3.00;;
24301;SDS011;12421;49.732;20.078;2024-02-26T09:58:16;9.90;;;5.60;;
24301;SDS011;12421;49.732;20.078;2024-02-26T10:08:22;9.00;;;5.20;;
24301;SDS011;12421;49.732;20.078;2024-02-26T10:18:26;5.70;;;3.50;;
24301;SDS011;12421;49.732;20.078;2024-02-26T10:28:32;6.00;;;3.60;;
24301;SDS011;12421;49.732;20.078;2024-02-26T10:38:36;5.20;;;3.30;;
24301;SDS011;12421;49.732;20.078;2024-02-26T10:48:40;5.70;;;3.40;;
24301;SDS011;12421;49.732;20.078;2024-02-26T10:58:45;6.30;;;3.70;;
24301;SDS011;12421;49.732;20.078;2024-02-26T11:08:50;7.70;;;5.30;;
24301;SDS011;12421;49.732;20.078;2024-02-26T11:18:54;5.90;;;2.90;;
24301;SDS011;12421;49.732;20.078;2024-02-26T11:28:59;3.50;;;2.30;;
24301;SDS011;12421;49.732;20.078;2024-02-26T11:39:03;3.80;;;2.50;;
24301;SDS011;12421;49.732;20.078;2024-02-26T11:59:40;4.10;;;3.20;;
24301;SDS011;12421;49.732;20.078;2024-02-26T12:09:44;4.50;;;3.30;;
24301;SDS011;12421;49.732;20.078;2024-02-26T12:19:47;3.40;;;2.50;;
24301;SDS011;12421;49.732;20.078;2024-02-26T12:29:51;3.20;;;2.50;;
24301;SDS011;12421;49.732;20.078;2024-02-26T12:39:56;5.30;;;3.30;;
24301;SDS011;12421;49.732;20.078;2024-02-26T12:49:59;4.00;;;3.10;;
24301;SDS011;12421;49.732;20.078;2024-02-26T13:00:03;4.60;;;3.40;;
24301;SDS011;12421;49.732;20.078;2024-02-26T13:10:09;5.30;;;4.60;;
24301;SDS011;12421;49.732;20.078;2024-02-26T13:30:32;5.90;;;5.20;;
24301;SDS011;12421;49.732;20.078;2024-02-26T13:40:35;6.90;;;5.50;;
24301;SDS011;12421;49.732;20.078;2024-02-26T13:50:39;10.50;;;6.80;;
24301;SDS011;12421;49.732;20.078;2024-02-26T14:00:43;12.90;;;10.10;;
24301;SDS011;12421;49.732;20.078;2024-02-26T14:10:47;7.50;;;6.50;;
24301;SDS011;12421;49.732;20.078;2024-02-26T14:20:50;9.40;;;7.10;;
24301;SDS011;12421;49.732;20.078;2024-02-26T14:30:54;9.00;;;7.50;;
24301;SDS011;12421;49.732;20.078;2024-02-26T14:40:57;11.60;;;8.00;;
24301;SDS011;12421;49.732;20.078;2024-02-26T14:51:01;12.50;;;8.90;;
24301;SDS011;12421;49.732;20.078;2024-02-26T15:01:05;12.30;;;9.20;;
24301;SDS011;12421;49.732;20.078;2024-02-26T15:11:09;12.20;;;9.60;;
24301;SDS011;12421;49.732;20.078;2024-02-26T15:31:56;12.30;;;9.80;;
24301;SDS011;12421;49.732;20.078;2024-02-26T15:41:59;11.40;;;9.80;;
24301;SDS011;12421;49.732;20.078;2024-02-26T15:52:05;16.60;;;10.50;;
24301;SDS011;12421;49.732;20.078;2024-02-26T16:02:12;16.10;;;13.30;;
24301;SDS011;12421;49.732;20.078;2024-02-26T16:12:18;18.30;;;13.70;;
24301;SDS011;12421;49.732;20.078;2024-02-26T16:22:29;16.50;;;12.50;;
24301;SDS011;12421;49.732;20.078;2024-02-26T16:32:35;17.40;;;12.50;;
24301;SDS011;12421;49.732;20.078;2024-02-26T16:52:46;15.20;;;11.90;;
24301;SDS011;12421;49.732;20.078;2024-02-26T17:02:49;16.80;;;12.80;;
24301;SDS011;12421;49.732;20.078;2024-02-26T17:12:53;25.70;;;18.00;;
24301;SDS011;12421;49.732;20.078;2024-02-26T17:22:59;42.60;;;24.70;;
24301;SDS011;12421;49.732;20.078;2024-02-26T17:33:02;25.50;;;18.40;;
24301;SDS011;12421;49.732;20.078;2024-02-26T17:43:06;88.60;;;50.80;;
24301;SDS011;12421;49.732;20.078;2024-02-26T17:53:09;50.00;;;29.90;;
24301;SDS011;12421;49.732;20.078;2024-02-26T18:13:23;38.10;;;24.00;;
24301;SDS011;12421;49.732;20.078;2024-02-26T18:23:28;35.10;;;21.90;;
24301;SDS011;12421;49.732;20.078;2024-02-26T18:33:32;23.60;;;15.70;;
24301;SDS011;12421;49.732;20.078;2024-02-26T18:53:43;17.90;;;11.70;;
24301;SDS011;12421;49.732;20.078;2024-02-26T19:03:47;15.70;;;11.10;;
24301;SDS011;12421;49.732;20.078;2024-02-26T19:13:50;18.00;;;13.30;;
24301;SDS011;12421;49.732;20.078;2024-02-26T19:23:56;19.60;;;15.20;;
24301;SDS011;12421;49.732;20.078;2024-02-26T19:34:00;24.30;;;18.20;;
24301;SDS011;12421;49.732;20.078;2024-02-26T19:44:04;41.30;;;25.20;;
24301;SDS011;12421;49.732;20.078;2024-02-26T19:54:08;95.00;;;51.80;;
24301;SDS011;12421;49.732;20.078;2024-02-26T20:04:11;97.60;;;53.60;;
24301;SDS011;12421;49.732;20.078;2024-02-26T20:14:17;74.10;;;41.20;;
24301;SDS011;12421;49.732;20.078;2024-02-26T20:24:20;63.20;;;40.50;;
24301;SDS011;12421;49.732;20.078;2024-02-26T20:34:23;63.80;;;37.90;;
24301;SDS011;12421;49.732;20.078;2024-02-26T20:44:29;67.90;;;37.90;;
24301;SDS011;12421;49.732;20.078;2024-02-26T20:54:32;62.70;;;38.70;;
24301;SDS011;12421;49.732;20.078;2024-02-26T21:04:36;60.30;;;36.10;;
24301;SDS011;12421;49.732;20.078;2024-02-26T21:14:41;59.70;;;37.30;;
24301;SDS011;12421;49.732;20.078;2024-02-26T21:24:44;59.60;;;33.60;;
24301;SDS011;12421;49.732;20.078;2024-02-26T21:34:47;64.10;;;36.00;;
24301;SDS011;12421;49.732;20.078;2024-02-26T21:44:51;51.30;;;34.00;;
24301;SDS011;12421;49.732;20.078;2024-02-26T21:54:55;48.40;;;32.40;;
24301;SDS011;12421;49.732;20.078;2024-02-26T22:04:59;30.80;;;21.10;;
24301;SDS011;12421;49.732;20.078;2024-02-26T22:15:03;39.50;;;24.80;;
24301;SDS011;12421;49.732;20.078;2024-02-26T22:25:14;43.60;;;28.00;;
24301;SDS011;12421;49.732;20.078;2024-02-26T22:35:17;50.70;;;30.30;;
24301;SDS011;12421;49.732;20.078;2024-02-26T22:45:20;49.60;;;31.80;;
24301;SDS011;12421;49.732;20.078;2024-02-26T22:55:25;43.70;;;26.90;;
24301;SDS011;12421;49.732;20.078;2024-02-26T23:05:28;50.30;;;32.30;;
24301;SDS011;12421;49.732;20.078;2024-02-26T23:15:34;39.70;;;27.20;;
24301;SDS011;12421;49.732;20.078;2024-02-26T23:25:38;42.90;;;27.50;;
24301;SDS011;12421;49.732;20.078;2024-02-26T23:35:41;53.50;;;31.80;;
24301;SDS011;12421;49.732;20.078;2024-02-26T23:45:44;63.80;;;38.10;;
24301;SDS011;12421;49.732;20.078;2024-02-26T23:55:47;50.10;;;32.90;;
